• Join FlightAware (Why Join?)
  • Login
  • US Flag 
05:59AM EDT


 

Airport Tracker/Info


-or-


 

Live Flight TrackerFlight Track Log ✈ RPA3392 ✈ 23-Jun-2013 ✈ KDCA - KALB

Flight Track Log - Related Links

Times and Time Zones

All times are in EDT time to prevent confusion due to time zone crossing. See the RPA3392 flight status page for this flight to view local times or setup timezone preferences in your user account.

Time Position Orientation Groundspeed Altitude Reporting Facility
EDT Latitude Longitude Course Direction KTS MPH feet Rate Location/Type
10:09PM 38.7775 -77.0350 81° East 163 188 2,800  Level Washington Center
10:10PM 38.7322 -76.9836 138° Southeast 238 274 5,500 2,580 Climbing Washington Center
10:11PM 39.0271 -76.5355 67° East  Level FlightAware Approximate
10:11PM 38.7769 -76.9150 50° Northeast 169 194 8,100  Level Washington Center
10:12PM 39.0764 -76.4106 61° Northeast  Level FlightAware Approximate
10:12PM 38.8442 -76.8631 31° Northeast 220 253 10,300  Level Washington Center
10:13PM 39.1167 -76.2837 90° East  Level FlightAware Approximate
10:13PM 38.9219 -76.8003 32° Northeast 263 303 12,200  Level Washington Center
10:14PM 39.1556 -76.1607 83° East  Level FlightAware Approximate
10:14PM 38.9997 -76.7294 35° Northeast 308 354 14,300  Level Washington Center
10:15PM 39.1682 -76.0214 81° East  Level FlightAware Approximate
10:15PM 39.0403 -76.6153 65° Northeast 330 380 15,800  Level Washington Center
10:16PM 39.0789 -76.4794 70° East 354 407 17,600 1,740 Climbing Washington Center
10:17PM 39.1175 -76.3408 70° East 384 442 19,400 1,800 Climbing Washington Center
10:18PM 39.1494 -76.1964 74° East 403 464 21,200 1,560 Climbing Washington Center
10:19PM 39.1731 -76.0575 78° East 419 482 22,500 1,320 Climbing Washington Center
10:20PM 39.1942 -75.8994 80° East 436 502 23,900 1,260 Climbing Washington Center
10:21PM 39.2758 -75.7711 51° Northeast 436 502 25,100 1,320 Climbing Washington Center
10:22PM 39.3678 -75.6533 45° Northeast 441 507 26,600 1,200 Climbing Washington Center
10:23PM 39.4614 -75.5325 45° Northeast 459 528 27,600 1,140 Climbing Washington Center
10:24PM 39.5508 -75.4167 45° Northeast 459 528 29,000 360 Climbing Washington Center
10:27PM 39.7661 -75.1297 46° Northeast 446 513 29,000  Level New York Center
10:28PM 39.8556 -75.0192 43° Northeast 446 513 29,000  Level New York Center
10:29PM 39.9472 -74.9083 43° Northeast 438 504 29,000  Level New York Center
10:30PM 40.0278 -74.8100 43° Northeast 439 505 29,000  Level New York Center
10:31PM 40.1278 -74.6881 43° Northeast 439 505 29,000  Level New York Center
10:32PM 40.2103 -74.5869 43° Northeast 444 511 29,000  Level New York Center
10:33PM 40.3100 -74.4617 44° Northeast 444 511 29,000 -360 Level New York Center
10:34PM 40.4011 -74.3467 44° Northeast 449 517 28,300 -1,140 Descending New York Center
10:35PM 40.4964 -74.2289 43° Northeast 454 522 26,800 -1,440 Descending New York Center
10:37PM 40.6828 -74.0028 43° Northeast 438 504 24,000 -960 Descending Boston Center
10:38PM 40.7656 -73.8978 44° Northeast 419 482 24,000  Level Boston Center
10:39PM 40.8481 -73.7956 43° Northeast 409 471 24,000  Level Boston Center
10:40PM 40.9325 -73.6928 43° Northeast 404 465 24,000 -180 Level Boston Center
10:41PM 41.0253 -73.6011 37° Northeast 404 465 23,700 -600 Descending Boston Center
10:42PM 41.1397 -73.5978 North 388 447 22,900 -840 Descending Boston Center
10:43PM 41.2542 -73.6164 353° North 383 441 22,100 -1,080 Descending Boston Center
10:44PM 41.3708 -73.6294 355° North 398 458 20,800 -1,500 Descending Boston Center
10:45PM 41.4811 -73.6428 355° North 405 466 19,100 -1,680 Descending Boston Center
10:46PM 41.5872 -73.6558 355° North 391 450 17,500 -1,800 Descending Boston Center
10:47PM 41.6914 -73.6717 354° North 382 440 15,600 -1,740 Descending Boston Center
10:48PM 41.7953 -73.6847 355° North 382 440 14,100 -1,620 Descending Boston Center
10:49PM 41.8933 -73.6950 356° North 367 422 12,400 -1,560 Descending Boston Center
10:50PM 41.9911 -73.7083 354° North 350 403 11,000 -720 Descending Boston Center
10:51PM 42.0867 -73.7214 354° North 344 396 11,000  Level Boston Center
10:52PM 42.1700 -73.7342 354° North 344 396 11,000 -420 Level Boston Center
10:53PM 42.2658 -73.7503 353° North 323 372 10,200 -1,200 Descending Boston Center
10:54PM 42.3364 -73.7631 352° North 292 336 8,600 -1,800 Descending Boston Center
10:55PM 42.4197 -73.7731 355° North 279 321 6,600 -2,040 Descending Boston Center
10:56PM 42.4883 -73.7858 352° North 274 315 4,600 -1,320 Descending Boston Center
10:57PM 42.5611 -73.7958 354° North 254 292 4,000 -600 Descending Boston Center
10:58PM 42.6153 -73.8028 355° North 234 269 3,500 -1,080 Descending Boston Center
10:59PM 42.6589 -73.8036 359° North 210 242 1,900 -1,620 Descending Boston Center